x

West Sea Otter (46204) Wave Buoy

9:00pm - Sat 13th Feb 2016 All times are PST. -8 hours from GMT.

  • Sig Wave height 11.2ft
  • Peak Period 10s
  • Wind
    18mph, 22mph gusts
  • Sea Temp 48°f
  • Air Temp 47°f
  • Sea Pressure 1011.4mb
  • West Sea Otter
  • West Sea Otter

More Historic Weather Station data

Upgrade to MSW Pro to gain access to the past 30 days of data for over 8000 Wavebouys and Weather Stations around the globe.

Join Pro

Comparision Forecast

View Surf forecast
   
Sat 02/13 9:00pm 11ft 10s 18 22 mph 1011.4mb 48f 47f
8:00pm 11.5ft 12s 16 22 mph 1010.6mb 48f 47f
7:00pm 12ft 11s 20 29 mph 1009.3mb 48f 47f
6:00pm 12ft 10s 20 27 mph 1008.3mb 48f 48f
5:00pm 13ft 9s 20 25 mph 1007.1mb 48f 48f
4:00pm 15.5ft 10s 22 29 mph 1006mb 48f 48f
3:00pm 18ft 8s 22 29 mph 1004.8mb 48f 48f
2:00pm 16.5ft 8s 31 40 mph 1004.4mb 48f 45f
1:00pm 14ft 7s 36 45 mph 1004.3mb 48f 44f
12:00pm 14ft 7s 38 47 mph 1005.4mb 48f 45f
11:00am 13ft 7s 34 43 mph 1007.1mb 48f 45f
10:00am 12.5ft 14s 31 40 mph 1009.2mb 48f 45f
9:00am 12ft 14s 31 40 mph 1011mb 48f 46f
8:00am 11ft 13s 27 36 mph 1011.5mb 48f 47f
7:00am 11ft 13s 25 31 mph 1012.3mb 48f 47f
6:00am 10ft 12s 25 31 mph 1012.7mb 48f 47f
5:00am 11ft 14s 22 27 mph 1013.3mb 48f 47f
4:00am 10.5ft 13s 22 25 mph 1013.7mb 48f 47f
3:00am 10.5ft 13s 18 22 mph 1014.4mb 48f 47f
2:00am 10.5ft 15s 18 22 mph 1014.8mb 48f 47f
1:00am 10ft 11s 18 22 mph 1014.6mb 48f 46f
12:00am 10.5ft 14s 16 20 mph 1014.7mb 48f 47f
Fri 02/12 11:00pm 10ft 14s 20 25 mph 1014.8mb 48f 46f
10:00pm 11ft 15s 16 20 mph 1014.5mb 49f 46f
9:00pm 10ft 14s 18 22 mph 1013.9mb 49f 49f
8:00pm 9ft 13s 18 22 mph 1013.6mb 49f 49f
7:00pm 11ft 13s 18 22 mph 1013.1mb 49f 49f
6:00pm 10.5ft 14s 18 20 mph 1012.6mb 49f 48f
5:00pm 10.5ft 15s 18 22 mph 1011.9mb 49f 48f
4:00pm 11ft 14s 22 27 mph 1011.7mb 49f 48f
3:00pm 11ft 12s 20 27 mph 1011.3mb 49f 48f
2:00pm 11.5ft 14s 13 18 mph 1011.2mb 49f 47f
1:00pm 11.5ft 14s 20 22 mph 1011.4mb 49f 49f
12:00pm 11ft 15s 20 25 mph 1011.9mb 49f 49f
11:00am 11ft 15s 18 22 mph 1012mb 49f 49f
10:00am 11ft 14s 16 18 mph 1012mb 49f 49f
9:00am 11ft 15s 11 16 mph 1011.7mb 49f 49f
8:00am 11ft 16s 16 18 mph 1011.6mb 49f 49f
7:00am 10ft 16s 13 16 mph 1011.1mb 49f 49f
6:00am 9.5ft 16s 13 16 mph 1010.7mb 49f 49f
5:00am 10ft 13s 13 18 mph 1010.4mb 49f 49f
4:00am 11.5ft 16s 11 13 mph 1010.1mb 49f 49f
3:00am 11ft 17s 13 18 mph 1010.2mb 49f 49f
2:00am 12ft 14s 20 27 mph 1009.7mb 49f 49f
1:00am 13ft 11s 25 34 mph 1009mb 49f 48f
12:00am 15.5ft 8s 34 40 mph 1008.7mb 49f 48f
Thu 02/11 11:00pm 15ft 8s 36 49 mph 1008.1mb 49f 49f
10:00pm 16.5ft 8s 38 47 mph 1008.3mb 49f 49f
9:00pm 15ft 8s 38 45 mph 1007.6mb 49f 51f
8:00pm 15.5ft 8s 38 49 mph 1008.7mb 49f 50f
7:00pm 15.5ft 7s 38 49 mph 1009.1mb 49f 50f
6:00pm 15ft 7s 38 49 mph 1009mb 49f 49f
5:00pm 14ft 7s 40 49 mph 1008.8mb 49f 49f
4:00pm 12.5ft 13s 38 49 mph 1008.9mb 49f 49f
3:00pm 12ft 12s 36 45 mph 1009.9mb 49f 50f
2:00pm 12.5ft 17s 31 40 mph 1010.8mb 49f 50f
1:00pm 12ft 18s 22 31 mph 1012.5mb 49f 49f
12:00pm 12ft 14s 31 38 mph 1014.4mb 49f 50f
11:00am 13ft 14s 20 25 mph 1015.2mb 49f 49f
10:00am 13ft 18s 22 29 mph 1015.7mb 49f 49f
9:00am 13ft 17s 29 40 mph 1016.1mb 49f 50f
8:00am 11.5ft 18s 27 34 mph 1017mb 49f 49f
7:00am 11.5ft 18s 25 29 mph 1017.5mb 49f 49f
6:00am 11ft 18s 25 29 mph 1018.6mb 49f 49f
5:00am 11ft 20s 22 31 mph 1019.4mb 49f 49f
4:00am 10ft 17s 25 31 mph 1019.6mb 49f 49f
3:00am 9.5ft 20s 25 31 mph 1020.3mb 49f 49f
2:00am 8.5ft 20s 25 29 mph 1020.7mb 49f 49f
1:00am 9ft 18s 22 25 mph 1020.9mb 49f 49f
12:00am 8.5ft 18s 18 22 mph 1021.3mb 49f 49f
Wed 02/10 11:00pm 8ft 20s 16 20 mph 1021.7mb 49f 50f
10:00pm 7.5ft 10s 20 25 mph 1021mb 49f 50f
9:00pm 7.5ft 11s 18 20 mph 1020.7mb 49f 49f
8:00pm 7.5ft 12s 20 25 mph 1020.1mb 49f 50f
7:00pm 8ft 11s 20 25 mph 1019.3mb 49f 50f
6:00pm 7.5ft 12s 20 25 mph 1018.3mb 49f 50f
5:00pm 8.5ft 12s 20 25 mph 1017.3mb 49f 50f
4:00pm 8.5ft 8s 20 25 mph 1016.4mb 48f 50f
3:00pm 8ft 8s 20 22 mph 1015mb 49f 50f
2:00pm 9ft 14s 20 25 mph 1013.4mb 48f 50f
1:00pm 9.5ft 7s 25 34 mph 1011.9mb 48f 51f
12:00pm 9ft 14s 22 27 mph 1010.4mb 48f 49f
11:00am 8ft 14s 22 25 mph 1010.3mb 48f 50f
10:00am 7ft 15s 22 25 mph 1010mb 48f 51f
9:00am 6.5ft 11s 20 22 mph 1010.2mb 48f 50f
8:00am 6ft 10s 18 20 mph 1010.2mb 49f 50f
7:00am 6ft 11s 20 25 mph 1010.4mb 48f 52f